Погода Каньена 2 недели

Южная Провинция, Ботсвана

23 июля-05 августа
  • 23июля
    Сегодня
    +9°
    +29°
    Ясно и безоблачно
    ВремяПогодаТемператураВлажностьДавлениеВетер, м/сВероятность осадков
    02:00Практически безоблачно+16°C15 %658 мм0.3 м/с2 %
    05:00Ясно и безоблачно+13°C22 %657 мм1.9 м/с2 %
    08:00Ясно и безоблачно+12°C47 %658 мм2.1 м/с2 %
    11:00Практически безоблачно+23°C27 %662 мм2.7 м/с2 %
    14:00Ясно и безоблачно+29°C8 %661 мм4.5 м/с2 %
    17:00Ясно и безоблачно+27°C9 %660 мм4.0 м/с2 %
    20:00Практически безоблачно+16°C14 %657 мм2.5 м/с2 %
    23:00Практически безоблачно+12°C17 %657 мм2.9 м/с2 %
  • 24июля
    Среда
    +7°
    +27°
    Ясно и безоблачно
    ВремяПогодаТемператураВлажностьДавлениеВетер, м/сВероятность осадков
    02:00Ясно и безоблачно+10°C16 %656 мм3.3 м/с2 %
    05:00Ясно и безоблачно+10°C17 %656 мм3.3 м/с2 %
    08:00Ясно и безоблачно+13°C18 %658 мм3.3 м/с2 %
    11:00Ясно и безоблачно+23°C7 %661 мм3.4 м/с2 %
    14:00Ясно и безоблачно+26°C4 %660 мм3.8 м/с2 %
    17:00Ясно и безоблачно+24°C4 %658 мм3.8 м/с2 %
    20:00Ясно и безоблачно+15°C8 %656 мм2.7 м/с2 %
    23:00Ясно и безоблачно+12°C12 %656 мм3.5 м/с2 %
  • 25июля
    Четверг
    +9°
    +26°
    Ясно и безоблачно
    ВремяПогодаТемператураВлажностьДавлениеВетер, м/сВероятность осадков
    02:00Ясно и безоблачно+10°C13 %655 мм4.0 м/с2 %
    05:00Ясно и безоблачно+8°C15 %654 мм3.1 м/с2 %
    08:00Ясно и безоблачно+12°C16 %656 мм3.1 м/с2 %
    11:00Ясно и безоблачно+22°C11 %660 мм2.5 м/с2 %
    14:00Ясно и безоблачно+25°C6 %658 мм2.6 м/с2 %
    17:00Ясно и безоблачно+24°C6 %657 мм2.2 м/с2 %
    20:00Ясно и безоблачно+14°C12 %655 мм2.4 м/с2 %
    23:00Ясно и безоблачно+11°C15 %654 мм2.4 м/с2 %
  • 26июля
    Пятница
    +9°
    +28°
    Ясно и безоблачно
    ВремяПогодаТемператураВлажностьДавлениеВетер, м/сВероятность осадков
    02:00Ясно и безоблачно+9°C19 %653 мм1.6 м/с2 %
    05:00Ясно и безоблачно+14°C13 %654 мм0.4 м/с2 %
    08:00Ясно и безоблачно+14°C15 %655 мм1.3 м/с2 %
    11:00Ясно и безоблачно+22°C9 %658 мм2.3 м/с2 %
    14:00Ясно и безоблачно+27°C5 %657 мм2.2 м/с2 %
    17:00Ясно и безоблачно+26°C4 %656 мм2.8 м/с2 %
    20:00Ясно и безоблачно+16°C10 %654 мм2.0 м/с2 %
    23:00Ясно и безоблачно+15°C16 %654 мм1.2 м/с2 %
  • 27июля
    Суббота
    +6°
    +27°
    Ясно и безоблачно
    ВремяПогодаТемператураВлажностьДавлениеВетер, м/сВероятность осадков
    02:00Ясно и безоблачно+13°C22 %653 мм2.3 м/с2 %
    05:00Ясно и безоблачно+10°C32 %652 мм2.5 м/с2 %
    08:00Ясно и безоблачно+11°C40 %654 мм1.6 м/с2 %
    11:00Ясно и безоблачно+21°C30 %657 мм1.4 м/с2 %
    14:00Ясно и безоблачно+26°C12 %656 мм1.4 м/с2 %
    17:00Ясно и безоблачно+25°C5 %656 мм3.6 м/с2 %
    20:00Ясно и безоблачно+15°C8 %654 мм3.5 м/с2 %
    23:00Ясно и безоблачно+11°C11 %653 мм3.5 м/с2 %
Мы используем cookies
Соглашаюсь